createdAt,value
2019-06-26T00:01:10.103Z,9.30
2019-06-26T00:03:37.949Z,9.23
2019-06-26T00:06:05.919Z,9.70
2019-06-26T00:08:33.921Z,9.60
2019-06-26T00:11:01.769Z,9.90
2019-06-26T00:13:29.615Z,9.77
2019-06-26T00:15:57.632Z,9.50
2019-06-26T00:18:25.472Z,9.53
2019-06-26T00:20:53.336Z,9.90
2019-06-26T00:23:21.160Z,9.27
2019-06-26T00:25:49.024Z,9.90
2019-06-26T00:28:17.026Z,9.57
2019-06-26T00:30:45.023Z,9.53
2019-06-26T00:33:12.984Z,9.40
2019-06-26T00:35:40.975Z,9.90
2019-06-26T00:38:08.904Z,9.70
2019-06-26T00:40:37.041Z,9.33
2019-06-26T00:43:04.984Z,9.13
2019-06-26T00:45:32.950Z,9.43
2019-06-26T00:48:00.797Z,9.40
2019-06-26T00:50:28.631Z,9.50
2019-06-26T00:52:56.685Z,9.80
2019-06-26T00:55:24.635Z,9.73
2019-06-26T00:57:52.503Z,9.77
2019-06-26T01:00:29.635Z,9.30
2019-06-26T01:02:57.598Z,9.70
2019-06-26T01:05:26.502Z,9.50
2019-06-26T01:07:54.470Z,9.53
2019-06-26T01:10:24.218Z,9.20
2019-06-26T01:12:52.250Z,9.90
2019-06-26T01:15:20.086Z,9.50
2019-06-26T01:17:48.049Z,9.87
2019-06-26T01:20:16.150Z,9.60
2019-06-26T01:22:44.106Z,9.53
2019-06-26T01:25:12.168Z,9.60
2019-06-26T01:27:40.113Z,9.83
2019-06-26T01:30:08.857Z,9.70
2019-06-26T01:32:36.871Z,9.70
2019-06-26T01:35:04.898Z,10.07
2019-06-26T01:37:32.899Z,9.67
2019-06-26T01:40:00.641Z,9.53
2019-06-26T01:42:28.568Z,9.80
2019-06-26T01:44:56.530Z,9.70
2019-06-26T01:47:24.415Z,9.70
2019-06-26T01:49:52.323Z,10.20
2019-06-26T01:52:20.306Z,9.73
2019-06-26T01:54:49.386Z,9.60
2019-06-26T01:57:18.328Z,9.70
2019-06-26T01:59:46.201Z,9.80
2019-06-26T02:02:14.100Z,9.50
2019-06-26T02:04:42.009Z,10.00
2019-06-26T02:07:09.967Z,9.80
2019-06-26T02:09:37.930Z,9.53
2019-06-26T02:12:05.829Z,9.50
2019-06-26T02:14:33.702Z,9.87
2019-06-26T02:17:01.555Z,9.67
2019-06-26T02:19:29.479Z,9.77
2019-06-26T02:21:57.325Z,9.53
2019-06-26T02:24:25.130Z,9.60
2019-06-26T02:26:53.038Z,9.40
2019-06-26T02:29:20.905Z,9.97
2019-06-26T02:31:48.863Z,10.37
2019-06-26T02:34:16.777Z,9.50
2019-06-26T02:36:44.519Z,9.50
2019-06-26T02:39:12.521Z,9.80
2019-06-26T02:41:40.519Z,9.50
2019-06-26T02:44:08.412Z,9.50
2019-06-26T02:46:37.467Z,9.63
2019-06-26T02:49:05.384Z,9.67
2019-06-26T02:51:33.341Z,10.10
2019-06-26T02:54:01.146Z,9.70
2019-06-26T02:56:29.133Z,9.53
2019-06-26T02:58:57.008Z,9.70
2019-06-26T03:01:24.846Z,9.60
2019-06-26T03:03:52.913Z,9.80
2019-06-26T03:06:20.928Z,9.50
2019-06-26T03:08:48.928Z,9.77
2019-06-26T03:11:16.782Z,9.73
2019-06-26T03:13:44.763Z,9.70
2019-06-26T03:16:12.710Z,9.67
2019-06-26T03:18:40.628Z,9.67
2019-06-26T03:21:08.603Z,9.50
2019-06-26T03:23:36.447Z,9.73
2019-06-26T03:26:04.491Z,9.60
2019-06-26T03:28:32.368Z,9.67
2019-06-26T03:31:00.238Z,9.70
2019-06-26T03:33:28.280Z,9.77
2019-06-26T03:35:56.206Z,9.50
2019-06-26T03:38:24.197Z,9.80
2019-06-26T03:40:52.226Z,9.63
2019-06-26T03:43:20.079Z,9.50
2019-06-26T03:45:48.091Z,9.20
2019-06-26T03:48:15.900Z,9.90
2019-06-26T03:50:43.896Z,9.47
2019-06-26T03:53:11.803Z,9.63
2019-06-26T03:55:40.581Z,10.03
2019-06-26T03:58:08.542Z,9.83
2019-06-26T04:00:39.827Z,9.67
2019-06-26T04:03:08.164Z,9.40
2019-06-26T04:05:36.185Z,9.53
2019-06-26T04:08:04.140Z,9.50
2019-06-26T04:10:32.320Z,9.53
2019-06-26T04:13:00.295Z,9.93
2019-06-26T04:15:41.345Z,9.67
2019-06-26T04:17:57.946Z,10.00
2019-06-26T04:20:25.835Z,9.60
2019-06-26T04:22:53.692Z,9.60
2019-06-26T04:25:21.645Z,9.50
2019-06-26T04:27:49.607Z,9.40
2019-06-26T04:30:18.890Z,10.40
2019-06-26T04:32:46.881Z,9.70
2019-06-26T04:35:14.847Z,9.90
2019-06-26T04:37:42.683Z,9.73
2019-06-26T04:40:12.700Z,9.70
2019-06-26T04:42:40.473Z,10.00
2019-06-26T04:45:09.161Z,9.70
2019-06-26T04:47:37.186Z,9.90
2019-06-26T04:50:06.256Z,9.63
2019-06-26T04:52:34.238Z,10.40
2019-06-26T04:55:02.282Z,9.93
2019-06-26T04:57:30.173Z,9.93
2019-06-26T04:59:58.027Z,10.37
2019-06-26T05:02:26.044Z,10.33
2019-06-26T05:04:53.901Z,9.77
2019-06-26T05:07:21.755Z,9.43
2019-06-26T05:09:49.647Z,9.50
2019-06-26T05:12:17.607Z,9.70
2019-06-26T05:14:45.571Z,10.27
2019-06-26T05:17:13.499Z,9.50
2019-06-26T05:19:42.330Z,10.07
2019-06-26T05:22:10.299Z,9.57
2019-06-26T05:24:38.183Z,9.73
2019-06-26T05:27:06.180Z,9.83
2019-06-26T05:29:34.020Z,10.13
2019-06-26T05:32:02.070Z,9.83
2019-06-26T05:34:29.906Z,9.90
2019-06-26T05:36:57.767Z,10.40
2019-06-26T05:39:25.682Z,9.80
2019-06-26T05:41:53.667Z,10.00
2019-06-26T05:44:21.595Z,9.80
2019-06-26T05:46:49.509Z,10.20
2019-06-26T05:49:17.343Z,9.70
2019-06-26T05:51:45.357Z,10.10
2019-06-26T06:06:41.067Z,11.03
2019-06-26T06:09:00.962Z,10.40
2019-06-26T06:11:28.930Z,10.37
2019-06-26T06:13:56.937Z,10.17
2019-06-26T06:16:24.818Z,10.40
2019-06-26T06:18:52.791Z,10.20
2019-06-26T06:21:20.724Z,9.83
2019-06-26T06:23:48.442Z,9.40
2019-06-26T06:26:16.370Z,9.73
2019-06-26T06:28:44.222Z,9.30
2019-06-26T06:31:12.152Z,9.50
2019-06-26T06:33:40.118Z,10.00
2019-06-26T06:36:09.773Z,9.43
2019-06-26T06:38:37.778Z,9.80
2019-06-26T06:41:05.716Z,9.57
2019-06-26T06:43:33.730Z,9.57
2019-06-26T06:46:01.792Z,9.67
2019-06-26T06:48:29.611Z,9.70
2019-06-26T06:50:57.455Z,9.30
2019-06-26T06:53:25.398Z,9.63
2019-06-26T06:55:53.284Z,9.73
2019-06-26T06:58:21.164Z,9.60
2019-06-26T07:00:49.192Z,9.53
2019-06-26T07:03:17.147Z,9.43
2019-06-26T07:05:45.001Z,9.47
2019-06-26T07:08:13.523Z,9.80
2019-06-26T07:10:41.461Z,9.63
2019-06-26T07:13:09.441Z,9.77
2019-06-26T07:15:37.337Z,9.50
2019-06-26T07:18:05.167Z,9.83
2019-06-26T07:20:34.236Z,9.63
2019-06-26T07:23:02.127Z,9.63
2019-06-26T07:25:30.036Z,9.40
2019-06-26T07:28:01.590Z,10.00
2019-06-26T07:30:27.830Z,10.10
2019-06-26T07:32:55.681Z,9.80
2019-06-26T07:35:23.541Z,9.50
2019-06-26T07:37:51.425Z,8.83
2019-06-26T07:40:19.753Z,9.20
2019-06-26T07:42:47.640Z,9.33
2019-06-26T07:45:15.872Z,9.23
2019-06-26T07:47:44.407Z,9.10
2019-06-26T07:50:12.827Z,9.30
2019-06-26T07:52:40.858Z,9.00
2019-06-26T07:55:11.812Z,9.23
2019-06-26T07:57:38.702Z,9.50
2019-06-26T08:00:07.637Z,9.60
2019-06-26T08:02:35.499Z,9.50
2019-06-26T08:05:04.808Z,8.73
2019-06-26T08:07:32.838Z,9.00
2019-06-26T08:10:00.841Z,9.00
2019-06-26T08:12:28.809Z,9.03
2019-06-26T08:14:56.708Z,9.13
2019-06-26T08:17:24.688Z,9.10
2019-06-26T08:19:52.671Z,9.10
2019-06-26T08:22:20.555Z,8.97
2019-06-26T08:24:48.564Z,9.03
2019-06-26T08:27:16.463Z,9.00
2019-06-26T08:29:44.384Z,8.90
2019-06-26T08:32:12.546Z,9.10
2019-06-26T08:34:40.471Z,8.87
2019-06-26T08:37:08.468Z,8.93
2019-06-26T08:39:36.925Z,9.30
2019-06-26T08:42:04.935Z,8.70
2019-06-26T08:44:32.861Z,8.90
2019-06-26T08:47:00.823Z,8.70
2019-06-26T08:49:28.865Z,8.90
2019-06-26T08:51:57.340Z,9.13
2019-06-26T08:54:25.085Z,9.10
2019-06-26T08:56:53.092Z,9.30
2019-06-26T08:59:21.054Z,8.97
2019-06-26T09:01:49.095Z,8.83
2019-06-26T09:04:17.036Z,9.00
2019-06-26T09:06:45.063Z,9.03
2019-06-26T09:22:23.530Z,9.07
2019-06-26T09:24:51.616Z,9.20
2019-06-26T09:27:19.718Z,8.87
2019-06-26T09:29:47.591Z,9.90
2019-06-26T09:32:15.510Z,8.90
2019-06-26T09:34:44.455Z,8.83
2019-06-26T09:37:13.440Z,9.10
2019-06-26T09:39:41.343Z,9.20
2019-06-26T09:42:09.320Z,8.40
2019-06-26T09:44:37.220Z,9.00
2019-06-26T09:47:05.297Z,9.07
2019-06-26T09:49:33.271Z,8.90
2019-06-26T09:52:01.315Z,8.53
2019-06-26T09:54:29.239Z,9.10
2019-06-26T09:56:57.130Z,8.77
2019-06-26T09:59:25.090Z,8.90
2019-06-26T10:01:52.993Z,8.97
2019-06-26T10:04:20.944Z,8.90
2019-06-26T10:06:48.827Z,8.63
2019-06-26T10:09:16.711Z,8.93
2019-06-26T10:11:44.586Z,8.60
2019-06-26T10:14:12.444Z,8.60
2019-06-26T10:16:40.443Z,8.87
2019-06-26T10:19:10.617Z,8.50
2019-06-26T10:21:38.608Z,8.77
2019-06-26T10:24:06.649Z,8.50
2019-06-26T10:26:34.664Z,8.60
2019-06-26T10:29:02.643Z,8.57
2019-06-26T10:31:30.732Z,8.80
2019-06-26T10:33:58.586Z,8.50
2019-06-26T10:36:26.436Z,8.47
2019-06-26T10:38:55.272Z,9.10
2019-06-26T10:41:26.352Z,8.60
2019-06-26T10:43:54.267Z,8.90
2019-06-26T10:46:22.230Z,8.70
2019-06-26T10:48:50.226Z,8.73
2019-06-26T10:51:18.308Z,8.50
2019-06-26T10:53:46.269Z,8.53
2019-06-26T10:56:14.233Z,8.57
2019-06-26T10:58:42.163Z,8.50
2019-06-26T11:01:10.381Z,8.70
2019-06-26T11:03:38.378Z,8.80
2019-06-26T11:06:06.359Z,8.60
2019-06-26T11:08:34.326Z,8.77
2019-06-26T11:11:03.424Z,8.80
2019-06-26T11:13:31.501Z,8.50
2019-06-26T11:16:00.060Z,9.03
2019-06-26T11:18:28.093Z,8.80
2019-06-26T11:20:55.933Z,8.83
2019-06-26T11:23:23.859Z,8.40
2019-06-26T11:25:51.872Z,8.60
2019-06-26T11:28:19.779Z,8.63
2019-06-26T11:30:47.714Z,8.60
2019-06-26T11:33:15.599Z,8.80
2019-06-26T11:35:43.633Z,9.30
2019-06-26T11:38:11.775Z,8.87
2019-06-26T11:40:39.904Z,8.50
2019-06-26T11:43:08.087Z,9.00
2019-06-26T11:45:36.150Z,8.70
2019-06-26T11:48:04.211Z,8.60
2019-06-26T11:50:32.217Z,8.50
2019-06-26T11:53:00.209Z,8.60
2019-06-26T11:55:29.367Z,8.60
2019-06-26T11:57:57.280Z,8.60
2019-06-26T12:00:25.981Z,8.47
2019-06-26T12:02:53.932Z,8.70
2019-06-26T12:05:21.872Z,8.70
2019-06-26T12:07:49.838Z,8.60
2019-06-26T12:10:20.231Z,8.53
2019-06-26T12:12:48.110Z,8.33
2019-06-26T12:15:17.742Z,8.73
2019-06-26T12:17:45.579Z,8.70
2019-06-26T12:20:19.390Z,8.90
2019-06-26T12:22:43.876Z,8.70
2019-06-26T12:25:13.551Z,8.73
2019-06-26T12:27:41.575Z,8.80
2019-06-26T12:30:10.349Z,8.57
2019-06-26T12:32:42.309Z,8.40
2019-06-26T12:35:09.294Z,8.20
2019-06-26T12:37:38.319Z,8.40
2019-06-26T12:40:07.948Z,8.43
2019-06-26T12:42:35.941Z,9.00
2019-06-26T12:45:04.573Z,8.90
2019-06-26T12:47:32.626Z,8.50
2019-06-26T12:50:00.710Z,8.70
2019-06-26T12:52:28.687Z,8.97
2019-06-26T12:54:56.626Z,8.70
2019-06-26T12:57:24.697Z,8.83
2019-06-26T12:59:57.674Z,8.80
2019-06-26T13:02:22.550Z,8.90
2019-06-26T13:04:50.433Z,8.30
2019-06-26T13:07:18.496Z,8.40
2019-06-26T13:09:46.480Z,8.57
2019-06-26T13:12:14.403Z,8.83
2019-06-26T13:14:42.700Z,8.50
2019-06-26T13:17:10.597Z,8.70
2019-06-26T13:19:38.648Z,8.70
2019-06-26T13:22:06.594Z,8.47
2019-06-26T13:24:34.551Z,8.73
2019-06-26T13:27:02.560Z,8.60
2019-06-26T13:29:31.070Z,8.20
2019-06-26T13:31:59.070Z,8.67
2019-06-26T13:34:26.994Z,8.90
2019-06-26T13:36:56.020Z,9.40
2019-06-26T13:39:23.895Z,8.80
2019-06-26T13:41:51.974Z,8.73
2019-06-26T13:44:20.005Z,8.53
2019-06-26T13:47:13.817Z,8.60
2019-06-26T13:59:36.856Z,8.50
2019-06-26T14:02:09.366Z,8.63
2019-06-26T14:04:44.094Z,8.60
2019-06-26T14:23:25.046Z,8.80
2019-06-26T14:32:35.428Z,8.93
2019-06-26T14:35:03.759Z,8.70
2019-06-26T14:37:39.272Z,9.40
2019-06-26T14:40:08.631Z,8.57
2019-06-26T14:42:36.497Z,8.40
2019-06-26T14:45:06.026Z,8.90
2019-06-26T14:47:36.707Z,8.97
2019-06-26T14:50:04.806Z,9.37
2019-06-26T14:52:35.038Z,9.00
2019-06-26T14:55:02.754Z,8.63
2019-06-26T14:57:30.773Z,9.10
2019-06-26T14:59:58.644Z,8.80
2019-06-26T15:02:26.704Z,9.03
2019-06-26T15:04:54.551Z,8.73
2019-06-26T15:07:22.547Z,8.77
2019-06-26T15:09:50.641Z,8.70
2019-06-26T15:12:18.522Z,8.80
2019-06-26T15:14:46.895Z,8.37
2019-06-26T15:17:14.853Z,8.90
2019-06-26T15:19:42.861Z,8.60
2019-06-26T15:22:10.751Z,8.73
2019-06-26T15:24:39.249Z,8.87
2019-06-26T15:27:07.190Z,8.80
2019-06-26T15:29:36.187Z,8.60
2019-06-26T15:32:04.303Z,8.70
2019-06-26T15:34:32.336Z,8.80
2019-06-26T15:37:00.303Z,8.63
2019-06-26T15:39:28.377Z,8.60
2019-06-26T15:41:56.275Z,8.70
2019-06-26T15:44:24.229Z,8.90
2019-06-26T15:46:52.339Z,8.90
2019-06-26T15:49:20.244Z,8.70
2019-06-26T15:51:48.108Z,8.70
2019-06-26T15:54:16.069Z,8.77
2019-06-26T15:56:43.980Z,8.70
2019-06-26T15:59:11.935Z,8.83
2019-06-26T16:01:39.881Z,8.73
2019-06-26T16:04:07.781Z,8.90
2019-06-26T16:06:35.667Z,8.63
2019-06-26T16:09:05.486Z,9.00
2019-06-26T16:11:33.514Z,8.73
2019-06-26T16:14:02.618Z,9.07
2019-06-26T16:16:31.875Z,9.00
2019-06-26T16:19:05.059Z,9.10
2019-06-26T16:21:34.010Z,9.00
2019-06-26T16:24:02.003Z,8.87
2019-06-26T16:26:30.010Z,9.03
2019-06-26T16:28:58.120Z,9.17
2019-06-26T16:31:26.371Z,8.93
2019-06-26T16:33:54.392Z,8.80
2019-06-26T16:36:22.305Z,9.00
2019-06-26T16:38:51.503Z,9.03
2019-06-26T16:41:19.701Z,9.00
2019-06-26T16:43:47.739Z,8.87
2019-06-26T16:46:16.766Z,8.80
2019-06-26T16:48:44.753Z,9.50
2019-06-26T16:51:12.630Z,8.90
2019-06-26T16:53:40.692Z,9.00
2019-06-26T16:56:08.797Z,9.47
2019-06-26T16:58:37.592Z,8.80
2019-06-26T17:01:05.980Z,8.93
2019-06-26T17:03:34.286Z,9.03
2019-06-26T17:06:02.340Z,8.80
2019-06-26T17:08:30.231Z,8.70
2019-06-26T17:10:58.482Z,8.77
2019-06-26T17:13:26.392Z,9.47
2019-06-26T17:15:54.414Z,8.97
2019-06-26T17:18:22.639Z,8.70
2019-06-26T17:20:50.664Z,8.80
2019-06-26T17:23:18.544Z,8.73
2019-06-26T17:25:46.562Z,9.00
2019-06-26T17:28:14.685Z,9.00
2019-06-26T17:30:42.807Z,8.63
2019-06-26T17:33:10.815Z,8.77
2019-06-26T17:35:39.089Z,8.87
2019-06-26T17:38:07.050Z,9.10
2019-06-26T17:40:36.194Z,9.20
2019-06-26T17:43:12.289Z,8.80
2019-06-26T17:45:34.214Z,8.97
2019-06-26T17:48:02.193Z,8.63
2019-06-26T17:50:30.497Z,8.67
2019-06-26T17:52:58.304Z,8.50
2019-06-26T17:55:26.277Z,8.67
2019-06-26T17:57:54.145Z,8.67
2019-06-26T18:00:32.602Z,8.90
2019-06-26T18:03:00.484Z,9.37
2019-06-26T18:05:31.249Z,8.90
2019-06-26T18:07:59.285Z,9.17
2019-06-26T18:10:27.370Z,8.90
2019-06-26T18:12:55.282Z,8.60
2019-06-26T18:15:23.305Z,8.90
2019-06-26T18:17:51.240Z,8.97
2019-06-26T18:20:19.389Z,8.77
2019-06-26T18:22:47.768Z,8.80
2019-06-26T18:25:16.734Z,8.90
2019-06-26T18:27:44.873Z,9.10
2019-06-26T18:30:13.613Z,8.60
2019-06-26T18:32:41.553Z,8.70
2019-06-26T18:35:10.086Z,8.70
2019-06-26T18:37:38.302Z,8.60
2019-06-26T18:40:07.184Z,8.80
2019-06-26T18:42:35.271Z,8.70
2019-06-26T18:45:06.226Z,8.57
2019-06-26T18:47:34.681Z,8.97
2019-06-26T18:50:03.017Z,8.60
2019-06-26T18:52:32.309Z,9.10
2019-06-26T18:55:00.729Z,8.83
2019-06-26T18:57:28.600Z,9.03
2019-06-26T18:59:56.498Z,9.17
2019-06-26T19:02:24.561Z,8.97
2019-06-26T19:04:54.198Z,8.73
2019-06-26T19:07:22.265Z,8.80
2019-06-26T19:09:51.405Z,8.90
2019-06-26T19:12:19.421Z,8.87
2019-06-26T19:14:47.321Z,8.80
2019-06-26T19:17:15.291Z,9.00
2019-06-26T19:19:43.180Z,9.43
2019-06-26T19:22:11.109Z,8.77
2019-06-26T19:24:39.135Z,9.10
2019-06-26T19:27:07.783Z,8.90
2019-06-26T19:29:36.052Z,8.80
2019-06-26T19:32:06.645Z,8.97
2019-06-26T19:34:34.733Z,9.37
2019-06-26T19:37:02.889Z,14.57
2019-06-26T19:39:30.934Z,10.43
2019-06-26T19:41:58.999Z,9.70
2019-06-26T19:44:27.003Z,9.93
2019-06-26T19:46:55.089Z,9.80
2019-06-26T19:49:23.086Z,13.87
2019-06-26T19:51:51.101Z,10.73
2019-06-26T19:54:27.128Z,11.43
2019-06-26T19:56:49.129Z,13.97
2019-06-26T19:59:17.046Z,11.30
2019-06-26T20:01:45.004Z,11.17
2019-06-26T20:04:13.005Z,9.67
2019-06-26T20:06:41.127Z,9.77
2019-06-26T20:09:09.473Z,9.40
2019-06-26T20:11:37.402Z,9.20
2019-06-26T20:14:05.321Z,10.07
2019-06-26T20:16:33.260Z,9.40
2019-06-26T20:19:01.166Z,9.40
2019-06-26T20:21:29.039Z,9.57
2019-06-26T20:23:58.073Z,9.30
2019-06-26T20:26:27.199Z,9.20
2019-06-26T20:28:55.117Z,9.30
2019-06-26T20:31:23.005Z,15.70
2019-06-26T20:33:50.926Z,11.53
2019-06-26T20:36:22.007Z,9.30
2019-06-26T20:38:50.170Z,10.10
2019-06-26T20:41:18.195Z,9.90
2019-06-26T20:43:46.106Z,9.90
2019-06-26T20:46:15.584Z,9.83
2019-06-26T20:48:43.742Z,9.40
2019-06-26T20:51:11.643Z,9.20
2019-06-26T20:53:39.739Z,9.23
2019-06-26T20:56:08.126Z,9.37
2019-06-26T20:58:36.497Z,9.27
2019-06-26T21:01:04.590Z,9.30
2019-06-26T21:03:32.354Z,9.40
2019-06-26T21:06:00.371Z,9.50
2019-06-26T21:08:29.550Z,9.20
2019-06-26T21:10:57.746Z,9.30
2019-06-26T21:13:25.999Z,9.33
2019-06-26T21:15:53.930Z,9.70
2019-06-26T21:18:21.948Z,9.33
2019-06-26T21:20:51.081Z,9.03
2019-06-26T21:23:23.201Z,9.40
2019-06-26T21:25:49.287Z,9.30
2019-06-26T21:28:17.622Z,9.30
2019-06-26T21:30:45.530Z,9.73
2019-06-26T21:33:13.334Z,9.50
2019-06-26T21:35:42.126Z,9.60
2019-06-26T21:38:10.254Z,9.40
2019-06-26T21:40:38.540Z,9.60
2019-06-26T21:43:06.573Z,9.33
2019-06-26T21:45:34.495Z,9.50
2019-06-26T21:48:02.570Z,9.40
2019-06-26T21:50:30.836Z,9.93
2019-06-26T21:52:58.885Z,9.23
2019-06-26T21:55:34.792Z,9.27
2019-06-26T21:58:20.406Z,9.40
2019-06-26T22:01:06.874Z,9.40
2019-06-26T22:03:53.834Z,9.57
2019-06-26T22:06:23.667Z,9.40
2019-06-26T22:09:11.908Z,9.37
2019-06-26T22:11:42.358Z,9.17
2019-06-26T22:14:11.063Z,9.30
2019-06-26T22:16:39.188Z,9.30
2019-06-26T22:19:07.302Z,9.40
2019-06-26T22:21:35.200Z,9.20
2019-06-26T22:24:03.171Z,9.77
2019-06-26T22:26:31.624Z,9.70
2019-06-26T22:28:59.989Z,9.13
2019-06-26T22:31:29.123Z,9.50
2019-06-26T22:33:57.114Z,9.47
2019-06-26T22:36:25.168Z,9.83
2019-06-26T22:38:53.064Z,9.30
2019-06-26T22:41:21.895Z,9.50
2019-06-26T22:43:50.464Z,9.63
2019-06-26T22:46:18.414Z,9.83
2019-06-26T22:48:46.261Z,9.30
2019-06-26T22:51:14.310Z,9.43
2019-06-26T22:53:42.445Z,9.40
2019-06-26T22:56:10.876Z,9.57
2019-06-26T22:58:38.993Z,9.67
2019-06-26T23:01:07.135Z,9.37
2019-06-26T23:03:34.962Z,9.27
2019-06-26T23:06:03.006Z,9.77
2019-06-26T23:08:30.859Z,9.30
2019-06-26T23:10:58.743Z,9.13
2019-06-26T23:13:26.738Z,9.10
2019-06-26T23:15:54.717Z,9.63
2019-06-26T23:18:22.671Z,9.60
2019-06-26T23:20:50.706Z,9.40
2019-06-26T23:49:27.953Z,9.40
2019-06-26T23:51:55.925Z,9.43
2019-06-26T23:54:23.873Z,9.50
2019-06-26T23:56:51.630Z,9.20
2019-06-26T23:59:19.433Z,9.67
